Time;durP1;ratioP1;P1;durP2;ratioP2;P2;SDS_P1;SDS_P2;PMS_P1;PMS_P2;Temp;Humidity;BMP_temperature;BMP_pressure;BME280_temperature;BME280_humidity;BME280_pressure;Samples;Min_cycle;Max_cycle;Signal;HPM_P1;HPM_P2
2023/04/04 00:00:29;;;;;;;;;;;0.80;99.90;;;;;;4970972;28;19999;-79
2023/04/04 00:02:56;;;;;;;;;;;0.80;99.90;;;;;;4960778;28;19926;-79
2023/04/04 00:05:22;;;;;;;;;;;0.80;99.90;;;;;;4963829;28;20482;-80
2023/04/04 00:07:49;;;;;;;;;;;0.80;99.90;;;;;;4967132;29;19923;-79
2023/04/04 00:10:17;;;;;;;;;;;0.80;99.90;;;;;;4963273;28;19926;-79
2023/04/04 00:12:44;;;;;;;;;;;0.80;99.90;;;;;;4966983;23;19934;-78
2023/04/04 00:15:11;;;;;;;;;;;0.70;99.90;;;;;;4935749;29;19934;-78
2023/04/04 00:17:38;;;;;;;;;;;0.70;99.90;;;;;;4963981;28;19926;-78
2023/04/04 00:20:06;;;;;;;;;;;0.70;99.90;;;;;;4963670;28;19990;-78
2023/04/04 00:22:33;;;;;;;;;;;0.60;99.90;;;;;;4952139;29;19917;-78
2023/04/04 00:25:00;;;;;;;;;;;0.60;99.90;;;;;;4953472;29;19922;-79
2023/04/04 00:27:28;;;;;;;;;;;0.50;99.90;;;;;;4960382;28;19949;-79
2023/04/04 00:29:55;;;;;;;;;;;0.40;99.90;;;;;;4966247;28;19925;-81
2023/04/04 00:32:22;;;;;;;;;;;0.40;99.90;;;;;;4947457;28;19937;-80
2023/04/04 00:34:52;;;;;;;;;;;0.40;99.90;;;;;;4978505;28;19926;-78
2023/04/04 00:37:18;;;;;;;;;;;0.30;99.90;;;;;;4942114;28;20378;-78
2023/04/04 00:39:46;;;;;;;;;;;0.30;99.90;;;;;;4939930;29;19929;-78
2023/04/04 00:42:13;;;;;;;;;;;0.30;99.90;;;;;;4956525;28;19934;-78
2023/04/04 00:44:41;;;;;;;;;;;0.30;99.90;;;;;;4942996;29;20370;-78
2023/04/04 00:47:08;;;;;;;;;;;0.20;99.90;;;;;;4949933;28;19921;-78
2023/04/04 00:49:36;;;;;;;;;;;0.20;99.90;;;;;;4949826;29;19933;-79
2023/04/04 00:52:05;;;;;;;;;;;0.10;99.90;;;;;;4951523;28;20013;-77
2023/04/04 00:54:32;;;;;;;;;;;0.10;99.90;;;;;;4937228;29;20342;-78
2023/04/04 00:57:01;;;;;;;;;;;0.10;99.90;;;;;;4937577;29;19930;-78
2023/04/04 00:59:28;;;;;;;;;;;0.10;99.90;;;;;;4935409;29;20406;-79
2023/04/04 01:01:56;;;;;;;;;;;0.00;99.90;;;;;;4971344;28;20377;-79
2023/04/04 01:04:23;;;;;;;;;;;0.00;99.90;;;;;;4960036;28;20002;-78
2023/04/04 01:06:51;;;;;;;;;;;0.00;99.90;;;;;;4957932;28;19921;-78
2023/04/04 01:09:18;;;;;;;;;;;-0.10;99.90;;;;;;4959343;28;20281;-79
2023/04/04 01:11:45;;;;;;;;;;;-0.10;99.90;;;;;;4960203;28;19996;-78
2023/04/04 01:14:13;;;;;;;;;;;-0.20;99.90;;;;;;4939783;29;19926;-77
2023/04/04 01:16:41;;;;;;;;;;;-0.20;99.90;;;;;;4957533;29;19927;-77
2023/04/04 01:19:11;;;;;;;;;;;-0.20;99.90;;;;;;4957777;29;19933;-76
2023/04/04 01:21:42;;;;;;;;;;;-0.20;99.90;;;;;;4955464;29;19934;-77
2023/04/04 01:24:10;;;;;;;;;;;-0.10;99.90;;;;;;4954431;29;20002;-78
2023/04/04 01:26:47;;;;;;;;;;;-0.10;99.90;;;;;;4946316;29;20008;-78
2023/04/04 01:29:14;;;;;;;;;;;-0.10;99.90;;;;;;4938731;29;19926;-79
2023/04/04 01:31:42;;;;;;;;;;;-0.20;99.90;;;;;;4938685;29;19922;-79
2023/04/04 01:34:12;;;;;;;;;;;-0.10;99.90;;;;;;4939896;29;19926;-78
2023/04/04 01:36:43;;;;;;;;;;;-0.10;99.90;;;;;;4940781;29;19926;-79
2023/04/04 01:39:15;;;;;;;;;;;-0.10;99.90;;;;;;4940349;29;19964;-79
2023/04/04 01:41:42;;;;;;;;;;;-0.20;99.90;;;;;;4939907;29;19938;-78
2023/04/04 01:44:11;;;;;;;;;;;-0.20;99.90;;;;;;4973864;28;20009;-78
2023/04/04 01:46:38;;;;;;;;;;;-0.20;99.90;;;;;;4958904;28;19926;-77
2023/04/04 01:49:05;;;;;;;;;;;-0.20;99.90;;;;;;4955651;28;20271;-78
2023/04/04 01:51:34;;;;;;;;;;;-0.30;99.90;;;;;;4960337;28;19988;-77
2023/04/04 01:54:01;;;;;;;;;;;-0.20;99.90;;;;;;4976290;28;19993;-77
2023/04/04 01:56:28;;;;;;;;;;;-0.20;99.90;;;;;;4976882;28;19926;-77
2023/04/04 01:58:55;;;;;;;;;;;-0.20;99.90;;;;;;4956976;28;19922;-76
2023/04/04 02:01:24;;;;;;;;;;;-0.30;99.90;;;;;;4976109;28;20494;-78
2023/04/04 02:03:52;;;;;;;;;;;-0.30;99.90;;;;;;4959243;28;20205;-78
2023/04/04 02:06:19;;;;;;;;;;;-0.40;99.90;;;;;;4958154;28;19926;-77
2023/04/04 02:08:47;;;;;;;;;;;-0.40;99.90;;;;;;4957771;28;19937;-78
2023/04/04 02:11:14;;;;;;;;;;;-0.40;99.90;;;;;;4958862;28;19957;-79
2023/04/04 02:13:43;;;;;;;;;;;-0.40;99.90;;;;;;4960096;28;20511;-79
2023/04/04 02:16:11;;;;;;;;;;;-0.40;99.90;;;;;;4960396;28;19922;-80
2023/04/04 02:18:39;;;;;;;;;;;-0.40;99.90;;;;;;4959383;28;19934;-78
2023/04/04 02:21:06;;;;;;;;;;;-0.50;99.90;;;;;;4956077;29;19982;-78
2023/04/04 02:23:33;;;;;;;;;;;-0.50;99.90;;;;;;4956345;28;19970;-78
2023/04/04 02:26:02;;;;;;;;;;;-0.40;99.90;;;;;;4955749;29;19926;-78
2023/04/04 02:28:30;;;;;;;;;;;-0.50;99.90;;;;;;4955497;28;20528;-79
2023/04/04 02:30:59;;;;;;;;;;;-0.40;99.90;;;;;;4956758;29;19926;-77
2023/04/04 02:33:26;;;;;;;;;;;-0.40;99.90;;;;;;4954623;28;19982;-79
2023/04/04 02:35:56;;;;;;;;;;;-0.40;99.90;;;;;;4956195;29;19989;-80
2023/04/04 02:38:23;;;;;;;;;;;-0.40;99.90;;;;;;4955969;29;19930;-79
2023/04/04 02:40:50;;;;;;;;;;;-0.40;99.90;;;;;;4954405;29;19962;-78
2023/04/04 02:43:17;;;;;;;;;;;-0.40;99.90;;;;;;4955263;29;20007;-80
2023/04/04 02:45:44;;;;;;;;;;;-0.50;99.90;;;;;;4955252;29;19927;-79
2023/04/04 02:51:51;;;;;;;;;;;-0.50;99.90;;;;;;4968757;28;19924;-80
2023/04/04 02:54:18;;;;;;;;;;;-0.50;99.90;;;;;;4939847;29;19922;-80
2023/04/04 02:56:47;;;;;;;;;;;-0.50;99.90;;;;;;4965467;28;19997;-78
2023/04/04 02:59:14;;;;;;;;;;;-0.50;99.90;;;;;;4958169;28;19926;-81
2023/04/04 03:01:41;;;;;;;;;;;-0.40;99.90;;;;;;4975766;28;19926;-79
2023/04/04 03:04:08;;;;;;;;;;;-0.40;99.90;;;;;;4958868;28;19922;-79
2023/04/04 03:06:36;;;;;;;;;;;-0.40;99.90;;;;;;4959852;28;19933;-80
2023/04/04 03:09:06;;;;;;;;;;;-0.40;99.90;;;;;;4959600;28;19933;-81
2023/04/04 03:11:33;;;;;;;;;;;-0.40;99.90;;;;;;4959952;28;20041;-80
2023/04/04 03:14:00;;;;;;;;;;;-0.40;99.90;;;;;;4959277;28;20024;-82
2023/04/04 03:16:34;;;;;;;;;;;-0.40;99.90;;;;;;4959589;28;19922;-80
2023/04/04 03:19:01;;;;;;;;;;;-0.40;99.90;;;;;;4954837;28;19926;-78
2023/04/04 03:21:29;;;;;;;;;;;-0.50;99.90;;;;;;4951162;29;19923;-78
2023/04/04 03:23:58;;;;;;;;;;;-0.50;99.90;;;;;;4956572;28;20365;-77
2023/04/04 03:26:28;;;;;;;;;;;-0.50;99.90;;;;;;4946846;28;19989;-78
2023/04/04 03:28:55;;;;;;;;;;;-0.60;99.90;;;;;;4948586;28;19911;-78
2023/04/04 03:31:24;;;;;;;;;;;-0.60;99.90;;;;;;4950129;28;19930;-80
2023/04/04 03:33:52;;;;;;;;;;;-0.60;99.90;;;;;;4955663;28;20385;-80
2023/04/04 03:36:19;;;;;;;;;;;-0.60;99.90;;;;;;4959056;28;19926;-80
2023/04/04 03:38:49;;;;;;;;;;;-0.60;99.90;;;;;;4933697;29;20402;-79
2023/04/04 03:41:16;;;;;;;;;;;-0.60;99.90;;;;;;4938370;28;19926;-80
2023/04/04 03:43:45;;;;;;;;;;;-0.60;99.90;;;;;;4938864;28;19976;-79
2023/04/04 03:46:12;;;;;;;;;;;-0.60;99.90;;;;;;4943953;28;20402;-79
2023/04/04 03:48:38;;;;;;;;;;;-0.60;99.90;;;;;;4940745;28;20409;-79
2023/04/04 03:51:10;;;;;;;;;;;-0.60;99.90;;;;;;4940066;28;19958;-79
2023/04/04 03:53:38;;;;;;;;;;;-0.60;99.90;;;;;;4934484;29;19927;-80
2023/04/04 03:56:05;;;;;;;;;;;-0.60;99.90;;;;;;4934496;29;19923;-79
2023/04/04 03:58:32;;;;;;;;;;;-0.70;99.90;;;;;;4946918;28;20005;-79
2023/04/04 04:01:01;;;;;;;;;;;-0.70;99.90;;;;;;4952437;29;19926;-78
2023/04/04 04:03:30;;;;;;;;;;;-0.80;99.90;;;;;;4934976;28;20450;-80
2023/04/04 04:05:57;;;;;;;;;;;-0.80;99.90;;;;;;4973432;28;19926;-80
2023/04/04 04:08:24;;;;;;;;;;;-0.80;99.90;;;;;;4949426;28;19930;-79
2023/04/04 04:10:54;;;;;;;;;;;-0.90;99.90;;;;;;4946411;29;20414;-79
2023/04/04 04:13:21;;;;;;;;;;;-0.90;99.90;;;;;;4962386;28;20031;-79
2023/04/04 04:15:49;;;;;;;;;;;-0.80;99.90;;;;;;4961753;28;19932;-79
2023/04/04 04:18:21;;;;;;;;;;;-0.80;99.90;;;;;;4956931;28;20410;-82
2023/04/04 04:20:50;;;;;;;;;;;-0.80;99.90;;;;;;4946030;29;19966;-80
2023/04/04 04:23:17;;;;;;;;;;;-0.80;99.90;;;;;;4941252;29;19977;-81
2023/04/04 04:25:48;;;;;;;;;;;-0.70;99.90;;;;;;4950820;29;19928;-80
2023/04/04 04:28:18;;;;;;;;;;;-0.70;99.90;;;;;;4946783;29;19922;-80
2023/04/04 04:30:46;;;;;;;;;;;-0.70;99.90;;;;;;4955535;28;19922;-80
2023/04/04 04:33:15;;;;;;;;;;;-0.80;99.90;;;;;;4951591;28;19926;-83
2023/04/04 04:35:58;;;;;;;;;;;-0.80;99.90;;;;;;4950303;29;19922;-79
2023/04/04 04:38:26;;;;;;;;;;;-0.80;99.90;;;;;;4950238;28;20390;-82
2023/04/04 04:40:53;;;;;;;;;;;-0.80;99.90;;;;;;4960728;28;20395;-81
2023/04/04 04:43:28;;;;;;;;;;;-0.90;99.90;;;;;;4945303;28;19923;-80
2023/04/04 04:45:55;;;;;;;;;;;-0.90;99.90;;;;;;4959754;28;20109;-81
2023/04/04 04:48:22;;;;;;;;;;;-0.90;99.90;;;;;;4957143;28;19990;-80
2023/04/04 04:50:56;;;;;;;;;;;-0.90;99.90;;;;;;4954866;28;19927;-80
2023/04/04 04:53:38;;;;;;;;;;;-0.90;99.90;;;;;;4956729;28;19926;-79
2023/04/04 04:56:06;;;;;;;;;;;-0.90;99.90;;;;;;4977389;28;19922;-79
2023/04/04 04:58:35;;;;;;;;;;;-1.00;99.90;;;;;;4956334;28;20653;-77
2023/04/04 05:01:05;;;;;;;;;;;-1.00;99.90;;;;;;4956545;28;20404;-80
2023/04/04 05:03:40;;;;;;;;;;;-1.00;99.90;;;;;;4959860;28;19922;-80
2023/04/04 05:06:12;;;;;;;;;;;-1.00;99.90;;;;;;4968568;28;19929;-82
2023/04/04 05:08:40;;;;;;;;;;;-1.00;99.90;;;;;;4966486;28;19950;-78
2023/04/04 05:11:31;;;;;;;;;;;-1.00;99.90;;;;;;4970505;28;19922;-79
2023/04/04 05:14:01;;;;;;;;;;;-1.00;99.90;;;;;;4960648;28;19997;-79
2023/04/04 05:16:34;;;;;;;;;;;-0.90;99.90;;;;;;4956107;28;19937;-79
2023/04/04 05:19:03;;;;;;;;;;;-0.90;99.90;;;;;;4948200;28;19922;-79
2023/04/04 05:21:35;;;;;;;;;;;-0.90;99.90;;;;;;4946239;29;20310;-81
2023/04/04 05:24:06;;;;;;;;;;;-0.90;99.90;;;;;;4955579;28;20374;-79
2023/04/04 05:26:37;;;;;;;;;;;-0.80;99.90;;;;;;4953518;29;19927;-84
2023/04/04 05:29:05;;;;;;;;;;;;;;;;;;4954184;28;19957;-82
2023/04/04 05:31:32;;;;;;;;;;;-0.80;99.90;;;;;;4950449;28;20373;-83
2023/04/04 05:34:07;;;;;;;;;;;-0.80;99.90;;;;;;4954652;28;19961;-83
2023/04/04 05:36:35;;;;;;;;;;;-0.70;99.90;;;;;;4962319;28;19926;-84
2023/04/04 05:39:06;;;;;;;;;;;-0.70;99.90;;;;;;4963339;28;19996;-83
2023/04/04 05:41:37;;;;;;;;;;;-0.50;99.90;;;;;;4951724;29;19922;-83
2023/04/04 05:44:11;;;;;;;;;;;-0.60;99.90;;;;;;4954144;29;19922;-82
2023/04/04 05:46:38;;;;;;;;;;;-0.40;99.90;;;;;;4951223;28;19930;-83
2023/04/04 05:49:06;;;;;;;;;;;-0.30;99.90;;;;;;4959229;28;19910;-84
2023/04/04 05:51:35;;;;;;;;;;;0.10;99.90;;;;;;4950400;29;19922;-84
2023/04/04 05:54:13;;;;;;;;;;;1.00;99.90;;;;;;4953961;29;19926;-84
2023/04/04 05:56:40;;;;;;;;;;;2.00;99.90;;;;;;4949411;29;19981;-81
2023/04/04 05:59:15;;;;;;;;;;;2.70;99.90;;;;;;4944654;29;19941;-79
2023/04/04 06:01:52;;;;;;;;;;;3.10;99.90;;;;;;4948621;28;19926;-81
2023/04/04 06:04:19;;;;;;;;;;;3.50;99.90;;;;;;4981148;28;19949;-84
2023/04/04 06:06:47;;;;;;;;;;;4.10;99.90;;;;;;4964114;28;19967;-79
2023/04/04 06:09:15;;;;;;;;;;;5.00;99.90;;;;;;4981528;28;20164;-84
2023/04/04 06:11:43;;;;;;;;;;;6.40;99.90;;;;;;4973647;28;20052;-79
2023/04/04 06:14:33;;;;;;;;;;;7.30;99.90;;;;;;4957617;28;19922;-84
2023/04/04 06:17:04;;;;;;;;;;;8.20;99.90;;;;;;4977530;28;20008;-80
2023/04/04 06:19:31;;;;;;;;;;;9.60;99.90;;;;;;4958267;28;19976;-78
2023/04/04 06:21:59;;;;;;;;;;;10.80;99.90;;;;;;4959279;28;20025;-82
2023/04/04 06:24:28;;;;;;;;;;;11.90;99.90;;;;;;4957472;28;20024;-83
2023/04/04 06:26:55;;;;;;;;;;;;;;;;;;4959788;28;19962;-85
2023/04/04 06:29:25;;;;;;;;;;;14.00;99.90;;;;;;4951433;29;19926;-85
2023/04/04 06:31:53;;;;;;;;;;;14.70;99.90;;;;;;4964800;28;19957;-85
2023/04/04 06:34:28;;;;;;;;;;;14.90;99.90;;;;;;4966724;29;20469;-82
2023/04/04 06:36:59;;;;;;;;;;;15.50;99.90;;;;;;4985132;28;19932;-84
2023/04/04 06:39:33;;;;;;;;;;;16.10;99.90;;;;;;4970687;28;20000;-85
2023/04/04 06:42:03;;;;;;;;;;;16.90;99.90;;;;;;4970207;28;19949;-83
2023/04/04 06:44:34;;;;;;;;;;;17.30;99.90;;;;;;4970534;28;20009;-84
2023/04/04 06:47:04;;;;;;;;;;;17.80;99.90;;;;;;4954264;29;19922;-85
2023/04/04 06:49:33;;;;;;;;;;;18.10;99.90;;;;;;4958882;28;19934;-84
2023/04/04 06:52:03;;;;;;;;;;;18.10;99.90;;;;;;4959686;28;20346;-85
2023/04/04 06:54:31;;;;;;;;;;;18.20;99.90;;;;;;4963183;28;20021;-85
2023/04/04 06:56:58;;;;;;;;;;;18.10;99.90;;;;;;4957194;28;19955;-83
2023/04/04 06:59:25;;;;;;;;;;;18.10;99.90;;;;;;4967092;28;20512;-84
2023/04/04 07:01:52;;;;;;;;;;;17.80;99.90;;;;;;4958249;29;20314;-84
2023/04/04 07:04:20;;;;;;;;;;;17.90;99.90;;;;;;4962230;29;19927;-83
2023/04/04 07:06:47;;;;;;;;;;;18.30;99.90;;;;;;4972073;28;19936;-85
2023/04/04 07:09:14;;;;;;;;;;;18.70;99.90;;;;;;4969508;28;19926;-83
2023/04/04 07:11:42;;;;;;;;;;;19.10;99.90;;;;;;4967288;28;19918;-83
2023/04/04 07:14:10;;;;;;;;;;;19.40;99.40;;;;;;4974079;28;19925;-83
2023/04/04 07:16:37;;;;;;;;;;;19.30;96.20;;;;;;4973863;28;19910;-84
2023/04/04 07:19:04;;;;;;;;;;;19.00;94.40;;;;;;4955247;28;19922;-84
2023/04/04 07:21:36;;;;;;;;;;;19.20;94.80;;;;;;4949302;29;19953;-86
2023/04/04 07:24:03;;;;;;;;;;;19.30;92.90;;;;;;4975870;28;19949;-83
2023/04/04 07:26:30;;;;;;;;;;;19.50;94.40;;;;;;4952402;29;19961;-83
2023/04/04 07:28:59;;;;;;;;;;;20.00;95.10;;;;;;4962401;28;19933;-85
2023/04/04 07:31:27;;;;;;;;;;;20.10;91.60;;;;;;4970853;28;19931;-83
2023/04/04 07:33:54;;;;;;;;;;;20.20;93.20;;;;;;4985263;28;19977;-87
2023/04/04 07:36:23;;;;;;;;;;;20.40;91.30;;;;;;4960417;28;19961;-85
2023/04/04 07:38:50;;;;;;;;;;;20.20;89.40;;;;;;4965790;28;19922;-86
2023/04/04 07:41:18;;;;;;;;;;;20.30;86.90;;;;;;4966795;28;19942;-84
2023/04/04 07:43:44;;;;;;;;;;;20.20;85.10;;;;;;4962040;28;19922;-87
2023/04/04 07:46:15;;;;;;;;;;;20.10;88.30;;;;;;4954285;28;19930;-84
2023/04/04 07:48:42;;;;;;;;;;;20.30;89.60;;;;;;4954287;28;19937;-85
2023/04/04 07:51:09;;;;;;;;;;;20.50;86.10;;;;;;4953438;28;19926;-86
2023/04/04 07:53:36;;;;;;;;;;;20.30;81.30;;;;;;4953279;28;20013;-85
2023/04/04 07:56:05;;;;;;;;;;;19.80;76.50;;;;;;4955954;28;19926;-83
2023/04/04 07:58:32;;;;;;;;;;;19.20;77.90;;;;;;4960524;28;19926;-85
2023/04/04 08:00:59;;;;;;;;;;;18.80;76.40;;;;;;4961675;28;19998;-85
2023/04/04 08:03:28;;;;;;;;;;;18.60;77.80;;;;;;4967652;28;19937;-85
2023/04/04 08:05:55;;;;;;;;;;;18.70;79.40;;;;;;4979448;28;19948;-85
2023/04/04 08:08:22;;;;;;;;;;;18.90;79.60;;;;;;4974095;28;19926;-84
2023/04/04 08:10:49;;;;;;;;;;;18.70;77.70;;;;;;4968449;28;19921;-84
2023/04/04 08:13:16;;;;;;;;;;;18.60;76.00;;;;;;4955270;28;19930;-86
2023/04/04 08:15:44;;;;;;;;;;;18.60;77.40;;;;;;4986540;28;19925;-85
2023/04/04 08:18:11;;;;;;;;;;;18.20;72.30;;;;;;4961630;28;19965;-86
2023/04/04 08:20:40;;;;;;;;;;;17.80;73.40;;;;;;4962434;29;19978;-86
2023/04/04 08:23:07;;;;;;;;;;;17.30;72.90;;;;;;4947461;29;19941;-87
2023/04/04 08:25:34;;;;;;;;;;;17.10;74.30;;;;;;4951872;28;19926;-85
2023/04/04 08:28:03;;;;;;;;;;;16.90;73.90;;;;;;4957063;28;20001;-84
2023/04/04 08:30:31;;;;;;;;;;;16.70;76.90;;;;;;4955731;28;19999;-83
2023/04/04 08:32:58;;;;;;;;;;;16.60;75.00;;;;;;4945907;28;19989;-85
2023/04/04 08:35:25;;;;;;;;;;;16.50;76.50;;;;;;4953735;28;19929;-87
2023/04/04 08:37:53;;;;;;;;;;;16.20;78.20;;;;;;4927886;29;19926;-82
2023/04/04 08:40:20;;;;;;;;;;;16.20;79.40;;;;;;4941350;29;19927;-81
2023/04/04 08:42:48;;;;;;;;;;;16.20;75.50;;;;;;4941306;29;20710;-82
2023/04/04 08:45:17;;;;;;;;;;;15.90;73.30;;;;;;4945343;29;19926;-81
2023/04/04 08:47:49;;;;;;;;;;;15.50;76.70;;;;;;4936876;29;20598;-81
2023/04/04 08:50:15;;;;;;;;;;;15.10;75.20;;;;;;4943967;29;19985;-82
2023/04/04 08:52:43;;;;;;;;;;;14.90;76.20;;;;;;4945334;29;19922;-82
2023/04/04 08:55:12;;;;;;;;;;;14.90;77.10;;;;;;4944203;29;19973;-81
2023/04/04 08:57:39;;;;;;;;;;;14.90;74.20;;;;;;4934507;29;19932;-81
2023/04/04 09:00:07;;;;;;;;;;;14.60;74.60;;;;;;4953415;28;19937;-80
2023/04/04 09:02:35;;;;;;;;;;;14.10;73.00;;;;;;4963047;28;20071;-80
2023/04/04 09:05:02;;;;;;;;;;;13.70;73.60;;;;;;4962755;28;20024;-81
2023/04/04 09:07:30;;;;;;;;;;;13.50;74.90;;;;;;4961809;28;19926;-81
2023/04/04 09:09:58;;;;;;;;;;;13.40;75.30;;;;;;4962998;28;20029;-81
2023/04/04 09:12:27;;;;;;;;;;;12.90;72.40;;;;;;4952038;28;19934;-81
2023/04/04 09:14:55;;;;;;;;;;;12.70;75.10;;;;;;4943989;29;20005;-81
2023/04/04 09:17:22;;;;;;;;;;;12.50;74.00;;;;;;4949228;28;19970;-81
2023/04/04 09:19:49;;;;;;;;;;;12.30;74.70;;;;;;4971990;28;20379;-82
2023/04/04 09:22:17;;;;;;;;;;;12.00;74.50;;;;;;4957770;29;20279;-81
2023/04/04 09:24:44;;;;;;;;;;;11.90;77.00;;;;;;4963182;29;19926;-81
2023/04/04 09:27:12;;;;;;;;;;;11.90;75.50;;;;;;4963688;29;19927;-81
2023/04/04 09:29:40;;;;;;;;;;;12.10;78.40;;;;;;4959542;29;19934;-80
2023/04/04 09:32:08;;;;;;;;;;;12.10;77.80;;;;;;4960408;29;19926;-81
2023/04/04 09:34:35;;;;;;;;;;;11.90;76.20;;;;;;4974686;28;19946;-80
2023/04/04 09:37:03;;;;;;;;;;;11.30;75.20;;;;;;4981805;28;19976;-81
2023/04/04 09:39:30;;;;;;;;;;;10.60;75.30;;;;;;4962770;28;20381;-80
2023/04/04 09:41:58;;;;;;;;;;;10.10;76.20;;;;;;4980419;28;19922;-81
2023/04/04 09:44:25;;;;;;;;;;;9.80;77.80;;;;;;4958618;28;19922;-81
2023/04/04 09:46:53;;;;;;;;;;;9.40;78.40;;;;;;4960980;28;20308;-81
2023/04/04 09:49:21;;;;;;;;;;;9.10;79.20;;;;;;4959911;28;19929;-81
2023/04/04 09:51:48;;;;;;;;;;;8.90;80.30;;;;;;4962351;29;19930;-81
2023/04/04 09:54:20;;;;;;;;;;;8.80;80.40;;;;;;4943623;29;20051;-81
2023/04/04 09:56:47;;;;;;;;;;;8.60;80.00;;;;;;4958144;28;19936;-81
2023/04/04 09:59:15;;;;;;;;;;;8.50;80.80;;;;;;4964630;28;19973;-81
2023/04/04 10:01:42;;;;;;;;;;;8.60;81.60;;;;;;4964127;28;19930;-80
2023/04/04 10:04:10;;;;;;;;;;;8.60;81.80;;;;;;4962912;28;19957;-79
2023/04/04 10:06:37;;;;;;;;;;;8.60;82.30;;;;;;4962536;28;19996;-81
2023/04/04 10:09:07;;;;;;;;;;;8.70;82.70;;;;;;4981329;28;19921;-81
2023/04/04 10:11:37;;;;;;;;;;;8.80;82.30;;;;;;4981204;28;19941;-80
2023/04/04 10:14:04;;;;;;;;;;;8.80;82.80;;;;;;4963427;28;19973;-79
2023/04/04 10:16:35;;;;;;;;;;;8.80;82.60;;;;;;4961865;28;19922;-80
2023/04/04 10:19:03;;;;;;;;;;;8.70;83.00;;;;;;4980685;28;20385;-81
2023/04/04 10:21:31;;;;;;;;;;;8.70;83.30;;;;;;4962356;28;20002;-81
2023/04/04 10:24:02;;;;;;;;;;;8.90;84.30;;;;;;4979395;28;19925;-81
2023/04/04 10:26:29;;;;;;;;;;;9.10;84.80;;;;;;4979748;28;20083;-81
2023/04/04 10:28:56;;;;;;;;;;;9.30;84.30;;;;;;4964619;28;19926;-82
2023/04/04 10:31:24;;;;;;;;;;;9.20;81.60;;;;;;4979785;28;20361;-82
2023/04/04 10:33:55;;;;;;;;;;;9.20;82.20;;;;;;4953393;29;19923;-79
2023/04/04 10:36:23;;;;;;;;;;;9.10;82.10;;;;;;4956193;28;19926;-80
2023/04/04 10:38:58;;;;;;;;;;;9.30;82.00;;;;;;4961968;28;19922;-79
2023/04/04 10:41:26;;;;;;;;;;;9.30;82.80;;;;;;4975352;28;19948;-82
2023/04/04 10:43:55;;;;;;;;;;;9.50;81.80;;;;;;4964558;28;19922;-80
2023/04/04 10:46:29;;;;;;;;;;;9.40;80.50;;;;;;4958849;28;19922;-81
2023/04/04 10:48:56;;;;;;;;;;;9.30;80.90;;;;;;4982424;28;19922;-81
2023/04/04 10:51:23;;;;;;;;;;;9.30;80.30;;;;;;4957478;28;19922;-81
2023/04/04 10:53:51;;;;;;;;;;;9.30;80.60;;;;;;4954334;28;19933;-82
2023/04/04 10:56:20;;;;;;;;;;;9.40;81.10;;;;;;4956322;28;19974;-82
2023/04/04 10:58:48;;;;;;;;;;;9.50;80.70;;;;;;4953796;28;19926;-81
2023/04/04 11:01:19;;;;;;;;;;;9.50;81.50;;;;;;4965009;28;19922;-79
2023/04/04 11:04:04;;;;;;;;;;;9.50;81.90;;;;;;4955376;29;19926;-80
2023/04/04 11:06:59;;;;;;;;;;;9.50;81.10;;;;;;4945431;29;20390;-81
2023/04/04 11:09:41;;;;;;;;;;;9.80;82.10;;;;;;4947912;29;20005;-80
2023/04/04 11:12:10;;;;;;;;;;;10.10;80.40;;;;;;4950051;29;19927;-80
2023/04/04 11:14:54;;;;;;;;;;;10.30;80.70;;;;;;4954128;28;20021;-79
2023/04/04 11:17:25;;;;;;;;;;;10.30;80.40;;;;;;4973039;28;19950;-82
2023/04/04 11:20:00;;;;;;;;;;;10.40;79.40;;;;;;4950588;29;19946;-79
2023/04/04 11:22:28;;;;;;;;;;;10.30;79.80;;;;;;4955220;28;19926;-80
2023/04/04 11:24:58;;;;;;;;;;;10.30;78.20;;;;;;4955057;29;19933;-83
2023/04/04 11:27:29;;;;;;;;;;;10.30;79.60;;;;;;4950560;28;19989;-79
2023/04/04 11:29:58;;;;;;;;;;;10.40;78.90;;;;;;4950187;28;19923;-79
2023/04/04 11:32:30;;;;;;;;;;;10.60;78.90;;;;;;4954944;29;19922;-83
2023/04/04 11:34:58;;;;;;;;;;;10.60;76.10;;;;;;4960599;29;19957;-82
2023/04/04 11:37:25;;;;;;;;;;;10.60;76.80;;;;;;4949312;29;19979;-81
2023/04/04 11:39:57;;;;;;;;;;;10.60;77.90;;;;;;4951231;28;19922;-79
2023/04/04 11:42:25;;;;;;;;;;;8.50;75.60;;;;;;4960804;29;19945;-78
2023/04/04 11:45:03;;;;;;;;;;;10.50;76.70;;;;;;4955682;28;19926;-80
2023/04/04 11:47:31;;;;;;;;;;;10.70;78.40;;;;;;4955948;28;19929;-79
2023/04/04 11:49:59;;;;;;;;;;;10.70;78.00;;;;;;4941951;29;19935;-81
2023/04/04 11:52:26;;;;;;;;;;;10.90;79.30;;;;;;4961771;28;19922;-80
2023/04/04 11:54:53;;;;;;;;;;;11.10;79.80;;;;;;4952166;29;19923;-79
2023/04/04 11:57:21;;;;;;;;;;;11.20;79.00;;;;;;4961545;28;19922;-83
2023/04/04 11:59:49;;;;;;;;;;;11.40;78.70;;;;;;4967649;28;19926;-81
2023/04/04 12:02:20;;;;;;;;;;;11.40;79.10;;;;;;4965308;28;19926;-83
2023/04/04 12:04:47;;;;;;;;;;;11.60;79.20;;;;;;4965847;28;19965;-82
2023/04/04 12:07:14;;;;;;;;;;;11.80;78.50;;;;;;4959867;28;19922;-80
2023/04/04 12:09:42;;;;;;;;;;;11.90;76.20;;;;;;4962581;29;19926;-80
2023/04/04 12:12:13;;;;;;;;;;;11.80;74.50;;;;;;4949476;29;19926;-84
2023/04/04 12:14:40;;;;;;;;;;;11.70;71.80;;;;;;4957354;29;19949;-83
2023/04/04 12:17:07;;;;;;;;;;;11.70;72.10;;;;;;4951468;29;19923;-80
2023/04/04 12:19:37;;;;;;;;;;;11.60;73.00;;;;;;4965331;28;20432;-80
2023/04/04 12:22:04;;;;;;;;;;;11.50;73.70;;;;;;4963266;28;19922;-79
2023/04/04 12:24:31;;;;;;;;;;;11.70;74.90;;;;;;4965108;29;19922;-78
2023/04/04 12:26:59;;;;;;;;;;;11.70;75.70;;;;;;4970138;28;20226;-80
2023/04/04 12:29:26;;;;;;;;;;;11.90;75.20;;;;;;4959027;28;19922;-80
2023/04/04 12:31:54;;;;;;;;;;;12.10;76.70;;;;;;4959089;28;19996;-82
2023/04/04 12:34:22;;;;;;;;;;;12.30;76.50;;;;;;4971450;28;19933;-82
2023/04/04 12:36:51;;;;;;;;;;;12.50;74.20;;;;;;4959937;28;20545;-80
2023/04/04 12:39:22;;;;;;;;;;;12.50;73.20;;;;;;4965848;28;19938;-81
2023/04/04 12:41:52;;;;;;;;;;;12.50;72.60;;;;;;4962938;28;21109;-81
2023/04/04 12:44:26;;;;;;;;;;;12.50;73.40;;;;;;4949917;29;19985;-79
2023/04/04 12:46:57;;;;;;;;;;;12.50;74.30;;;;;;4946408;29;19997;-80
2023/04/04 12:49:27;;;;;;;;;;;12.70;75.20;;;;;;4961455;29;20447;-83
2023/04/04 12:51:57;;;;;;;;;;;12.80;75.00;;;;;;4965101;28;19930;-79
2023/04/04 12:54:25;;;;;;;;;;;12.80;74.50;;;;;;4952164;29;20360;-80
2023/04/04 12:56:55;;;;;;;;;;;12.80;73.00;;;;;;4961077;29;19941;-81
2023/04/04 12:59:23;;;;;;;;;;;12.80;74.30;;;;;;4967929;28;20418;-81
2023/04/04 13:01:50;;;;;;;;;;;12.80;74.40;;;;;;4961015;28;19926;-79
2023/04/04 13:04:17;;;;;;;;;;;13.00;75.30;;;;;;4941428;28;20055;-81
2023/04/04 13:06:45;;;;;;;;;;;13.40;76.00;;;;;;4959455;28;19968;-78
2023/04/04 13:09:17;;;;;;;;;;;13.50;75.10;;;;;;4964921;28;19988;-79
2023/04/04 13:12:02;;;;;;;;;;;13.40;72.80;;;;;;4944434;29;19922;-79
2023/04/04 13:14:50;;;;;;;;;;;13.00;72.40;;;;;;4948141;29;19926;-81
2023/04/04 13:17:16;;;;;;;;;;;12.70;72.60;;;;;;4958239;29;19926;-79
2023/04/04 13:19:43;;;;;;;;;;;12.70;73.50;;;;;;4948291;29;19926;-80
2023/04/04 13:22:10;;;;;;;;;;;12.90;74.00;;;;;;4945447;28;20326;-79
2023/04/04 13:24:38;;;;;;;;;;;13.20;75.20;;;;;;4964665;28;19937;-79
2023/04/04 13:27:05;;;;;;;;;;;13.40;74.30;;;;;;4953138;28;19925;-79
2023/04/04 13:29:33;;;;;;;;;;;13.20;70.80;;;;;;4963000;28;19922;-79
2023/04/04 13:32:00;;;;;;;;;;;13.10;72.80;;;;;;4960051;28;19926;-79
2023/04/04 13:34:27;;;;;;;;;;;13.30;72.30;;;;;;4958900;28;19931;-79
2023/04/04 13:36:55;;;;;;;;;;;13.30;71.90;;;;;;4951964;28;19922;-79
2023/04/04 13:39:22;;;;;;;;;;;13.30;72.40;;;;;;4947404;29;19926;-79
2023/04/04 13:41:50;;;;;;;;;;;13.20;72.40;;;;;;4967663;28;19953;-80
2023/04/04 13:44:17;;;;;;;;;;;13.30;72.10;;;;;;4955268;29;19922;-79
2023/04/04 13:46:44;;;;;;;;;;;13.30;72.70;;;;;;4974064;28;19922;-79
2023/04/04 13:49:11;;;;;;;;;;;13.30;72.90;;;;;;4978569;28;20309;-80
2023/04/04 13:51:38;;;;;;;;;;;13.60;73.70;;;;;;4961433;28;19968;-80
2023/04/04 13:54:05;;;;;;;;;;;13.60;73.60;;;;;;4966489;28;19969;-78
2023/04/04 13:56:32;;;;;;;;;;;13.60;72.50;;;;;;4956741;29;20029;-82
2023/04/04 13:59:00;;;;;;;;;;;13.50;72.20;;;;;;4956081;28;20664;-79
2023/04/04 14:01:28;;;;;;;;;;;13.30;71.90;;;;;;4967441;28;19993;-79
2023/04/04 14:03:55;;;;;;;;;;;13.10;72.50;;;;;;4945991;29;19922;-79
2023/04/04 14:06:22;;;;;;;;;;;13.10;73.30;;;;;;4950641;29;19922;-80
2023/04/04 14:08:49;;;;;;;;;;;13.10;73.00;;;;;;4959770;28;19936;-79
2023/04/04 14:11:16;;;;;;;;;;;13.10;72.80;;;;;;4958354;28;20402;-79
2023/04/04 14:13:45;;;;;;;;;;;13.00;72.30;;;;;;4956507;28;19915;-80
2023/04/04 14:16:13;;;;;;;;;;;13.10;73.30;;;;;;4954220;28;19926;-79
2023/04/04 14:18:40;;;;;;;;;;;13.30;73.50;;;;;;4941744;28;20325;-78
2023/04/04 14:21:07;;;;;;;;;;;13.50;73.60;;;;;;4969973;28;19956;-79
2023/04/04 14:23:34;;;;;;;;;;;13.60;72.60;;;;;;4979630;28;19914;-80
2023/04/04 14:26:01;;;;;;;;;;;13.70;72.80;;;;;;4946175;28;20112;-79
2023/04/04 14:28:27;;;;;;;;;;;13.60;70.50;;;;;;4972083;28;19953;-80
2023/04/04 14:30:56;;;;;;;;;;;13.60;70.90;;;;;;4944666;28;19951;-80
2023/04/04 14:33:25;;;;;;;;;;;13.60;71.80;;;;;;4939283;29;19986;-81